Time;durP1;ratioP1;P1;durP2;ratioP2;P2;SDS_P1;SDS_P2;PMS_P1;PMS_P2;Temp;Humidity;BMP_temperature;BMP_pressure;BME280_temperature;BME280_humidity;BME280_pressure;Samples;Min_cycle;Max_cycle;Signal;HPM_P1;HPM_P2
2023/08/17 00:00:32;;;;;;;33.22;23.77;;;17.60;99.90;;;;;;6248308;23;20028;-92
2023/08/17 00:03:21;;;;;;;42.05;24.83;;;17.60;99.90;;;;;;6246311;23;20028;-90
2023/08/17 00:06:08;;;;;;;38.00;25.05;;;17.60;99.90;;;;;;6247886;23;20019;-92
2023/08/17 00:08:56;;;;;;;39.10;25.00;;;17.40;99.90;;;;;;6247406;23;20537;-91
2023/08/17 00:11:43;;;;;;;43.10;26.85;;;17.40;99.90;;;;;;6248278;23;20028;-91
2023/08/17 00:14:33;;;;;;;43.13;27.63;;;17.40;99.90;;;;;;6246270;23;20024;-90
2023/08/17 00:17:20;;;;;;;48.67;28.77;;;17.40;99.90;;;;;;6248200;23;20028;-89
2023/08/17 00:20:09;;;;;;;44.53;28.60;;;17.30;99.90;;;;;;6246162;23;20470;-92
2023/08/17 00:22:57;;;;;;;40.78;27.60;;;17.20;99.90;;;;;;6249742;22;20326;-91
2023/08/17 00:25:44;;;;;;;46.92;27.75;;;17.20;99.90;;;;;;6248071;22;20375;-92
2023/08/17 00:28:42;;;;;;;;;;;;;;;;;;;;;
2023/08/17 00:31:31;;;;;;;56.20;32.85;;;17.30;99.90;;;;;;6246352;23;20106;-92
2023/08/17 00:34:20;;;;;;;49.30;30.05;;;17.30;99.90;;;;;;6247349;23;20028;-91
2023/08/17 00:37:07;;;;;;;64.75;35.50;;;17.30;99.90;;;;;;6246325;23;20019;-91
2023/08/17 00:39:54;;;;;;;53.38;30.38;;;17.20;99.90;;;;;;6249187;22;20023;-89
2023/08/17 00:42:42;;;;;;;42.83;26.98;;;17.20;99.90;;;;;;6246733;23;20038;-92
2023/08/17 00:45:29;;;;;;;49.20;28.13;;;17.20;99.90;;;;;;6247329;23;20032;-91
2023/08/17 00:48:17;;;;;;;41.60;27.50;;;17.20;99.90;;;;;;6246941;23;20062;-91
2023/08/17 00:51:05;;;;;;;52.03;30.58;;;17.10;99.90;;;;;;6247839;23;20117;-92
2023/08/17 00:53:59;;;;;;;54.97;31.15;;;17.10;99.90;;;;;;6246599;23;20028;-91
2023/08/17 00:56:46;;;;;;;59.03;31.33;;;17.00;99.90;;;;;;6246639;23;20024;-91
2023/08/17 00:59:34;;;;;;;56.70;31.30;;;17.00;99.90;;;;;;6245727;23;20047;-89
2023/08/17 01:02:24;;;;;;;56.65;31.52;;;16.90;99.90;;;;;;6245937;23;20093;-91
2023/08/17 01:05:11;;;;;;;69.07;35.05;;;16.90;99.90;;;;;;6245897;23;20064;-91
2023/08/17 01:07:59;;;;;;;62.40;34.05;;;16.90;99.90;;;;;;6247021;23;20100;-92
2023/08/17 01:11:01;;;;;;;63.08;35.22;;;16.90;99.90;;;;;;6246436;23;20340;-92
2023/08/17 01:13:59;;;;;;;52.95;31.38;;;16.90;99.90;;;;;;6247500;23;20083;-91
2023/08/17 01:16:59;;;;;;;64.18;33.53;;;17.10;99.90;;;;;;6247704;23;20024;-91
2023/08/17 01:19:48;;;;;;;48.22;30.70;;;17.00;99.90;;;;;;6247412;23;20027;-91
2023/08/17 01:22:38;;;;;;;53.67;30.85;;;16.90;99.90;;;;;;6248812;23;20054;-92
2023/08/17 01:25:25;;;;;;;58.45;31.67;;;16.90;99.90;;;;;;6252654;23;20040;-89
2023/08/17 01:28:13;;;;;;;50.70;30.23;;;16.90;99.90;;;;;;6249352;23;20055;-91
2023/08/17 01:31:31;;;;;;;57.13;31.27;;;16.80;99.90;;;;;;6260231;23;20031;-91
2023/08/17 01:34:23;;;;;;;52.63;30.38;;;16.80;99.90;;;;;;6260947;23;20620;-91
2023/08/17 01:37:14;;;;;;;44.72;28.70;;;16.80;99.90;;;;;;6265299;22;20052;-88
2023/08/17 01:40:04;;;;;;;49.42;29.60;;;16.70;99.90;;;;;;6266723;23;20020;-88
2023/08/17 01:42:53;;;;;;;54.20;31.13;;;16.70;99.90;;;;;;6258612;23;20035;-90
2023/08/17 01:45:42;;;;;;;50.70;28.60;;;16.70;99.90;;;;;;6257527;23;20084;-90
2023/08/17 01:48:29;;;;;;;52.63;29.00;;;16.70;99.90;;;;;;6261802;23;20024;-91
2023/08/17 01:51:21;;;;;;;52.35;30.10;;;16.70;99.90;;;;;;6256717;23;20016;-91
2023/08/17 01:54:08;;;;;;;47.92;28.60;;;16.80;99.90;;;;;;6249904;23;20020;-92
2023/08/17 01:56:56;;;;;;;57.22;31.05;;;17.00;99.90;;;;;;6254174;23;20105;-92
2023/08/17 01:59:43;;;;;;;69.30;39.13;;;17.10;99.90;;;;;;6257300;23;20031;-90
2023/08/17 02:02:35;;;;;;;59.95;35.15;;;17.10;99.90;;;;;;6251696;23;20110;-89
2023/08/17 02:05:22;;;;;;;61.45;37.88;;;17.20;99.90;;;;;;6250831;23;20426;-91
2023/08/17 02:08:09;;;;;;;62.63;38.90;;;17.30;99.90;;;;;;6254568;23;20028;-90
2023/08/17 02:10:57;;;;;;;70.70;40.05;;;17.30;99.90;;;;;;6259269;23;20054;-90
2023/08/17 02:13:44;;;;;;;61.90;38.40;;;17.30;99.90;;;;;;6267701;23;20047;-88
2023/08/17 02:16:31;;;;;;;68.20;40.28;;;17.40;99.90;;;;;;6255567;23;20024;-90
2023/08/17 02:19:19;;;;;;;57.00;36.08;;;17.40;99.90;;;;;;6251540;23;20028;-92
2023/08/17 02:22:07;;;;;;;51.75;34.55;;;17.40;99.90;;;;;;6248380;23;20071;-91
2023/08/17 02:24:57;;;;;;;53.60;33.70;;;17.50;99.90;;;;;;6249341;23;20099;-92
2023/08/17 02:27:44;;;;;;;62.10;36.60;;;17.50;99.90;;;;;;6248787;23;20055;-92
2023/08/17 02:30:32;;;;;;;56.97;33.35;;;17.50;99.90;;;;;;6251585;23;20306;-92
2023/08/17 02:33:20;;;;;;;48.90;32.13;;;17.50;99.90;;;;;;6259379;23;20016;-91
2023/08/17 02:36:09;;;;;;;53.20;32.40;;;17.50;99.90;;;;;;6268682;22;20035;-89
2023/08/17 02:39:00;;;;;;;44.65;28.00;;;17.50;99.90;;;;;;6273408;22;20032;-86
2023/08/17 02:41:51;;;;;;;49.40;31.15;;;17.50;99.90;;;;;;6265905;22;20023;-90
2023/08/17 02:44:40;;;;;;;51.00;31.25;;;17.60;99.90;;;;;;6250988;23;20060;-91
2023/08/17 02:47:28;;;;;;;51.13;30.35;;;17.60;99.90;;;;;;6247736;23;20103;-90
2023/08/17 02:50:16;;;;;;;58.47;33.22;;;17.60;99.90;;;;;;6250491;23;20024;-93
2023/08/17 02:53:03;;;;;;;72.68;34.88;;;17.60;99.90;;;;;;6247625;23;20418;-91
2023/08/17 02:55:51;;;;;;;77.90;36.42;;;17.70;99.90;;;;;;6248208;23;20035;-92
2023/08/17 02:58:42;;;;;;;64.97;33.88;;;17.70;99.90;;;;;;6249032;23;20035;-91
2023/08/17 03:01:31;;;;;;;80.18;36.60;;;17.70;99.90;;;;;;6248857;23;20028;-91
2023/08/17 03:04:20;;;;;;;76.25;35.38;;;17.60;99.90;;;;;;6250584;23;20107;-92
2023/08/17 03:07:07;;;;;;;91.97;39.03;;;17.60;99.90;;;;;;6248372;23;20453;-91
2023/08/17 03:09:55;;;;;;;93.65;38.10;;;17.60;99.90;;;;;;6248095;23;20434;-91
2023/08/17 03:12:42;;;;;;;90.13;36.90;;;17.60;99.90;;;;;;6248233;23;20421;-91
2023/08/17 03:15:30;;;;;;;86.00;36.35;;;17.50;99.90;;;;;;6247926;23;20024;-90
2023/08/17 03:18:21;;;;;;;77.88;34.10;;;17.60;99.90;;;;;;6247923;23;20025;-92
2023/08/17 03:21:12;;;;;;;90.53;36.10;;;17.50;99.90;;;;;;6246433;23;20067;-91
2023/08/17 03:24:02;;;;;;;75.03;33.22;;;17.50;99.90;;;;;;6252537;23;20032;-92
2023/08/17 03:26:49;;;;;;;90.88;35.30;;;17.50;99.90;;;;;;6258947;23;20032;-91
2023/08/17 03:29:37;;;;;;;97.63;35.50;;;17.40;99.90;;;;;;6253563;23;20039;-91
2023/08/17 03:32:24;;;;;;;66.15;30.50;;;17.50;99.90;;;;;;6248880;23;20020;-91
2023/08/17 03:35:13;;;;;;;104.88;33.05;;;17.50;99.90;;;;;;6246761;23;20121;-91
2023/08/17 03:38:01;;;;;;;77.30;31.52;;;17.40;99.90;;;;;;6247861;23;20032;-91
2023/08/17 03:40:48;;;;;;;90.25;34.25;;;17.40;99.90;;;;;;6246642;23;20039;-90
2023/08/17 03:43:37;;;;;;;115.30;37.22;;;17.40;99.90;;;;;;6246964;23;20028;-91
2023/08/17 03:46:24;;;;;;;107.90;36.10;;;17.40;99.90;;;;;;6248673;23;20151;-91
2023/08/17 03:49:14;;;;;;;84.25;32.63;;;17.40;99.90;;;;;;6246744;23;20028;-91
2023/08/17 03:52:01;;;;;;;101.28;34.28;;;17.40;99.90;;;;;;6247068;23;20088;-91
2023/08/17 03:54:48;;;;;;;147.50;38.80;;;17.40;99.90;;;;;;6248515;22;20028;-92
2023/08/17 03:57:36;;;;;;;126.57;36.33;;;17.40;99.90;;;;;;6246826;23;20099;-91
2023/08/17 04:00:26;;;;;;;113.28;35.00;;;17.40;99.90;;;;;;6247486;23;20028;-91
2023/08/17 04:03:20;;;;;;;101.97;33.63;;;17.50;99.90;;;;;;6253905;23;20031;-91
2023/08/17 04:06:10;;;;;;;122.50;34.83;;;17.50;99.90;;;;;;6248477;23;20103;-91
2023/08/17 04:08:58;;;;;;;164.85;37.85;;;17.50;99.90;;;;;;6247664;23;20319;-90
2023/08/17 04:11:47;;;;;;;133.50;35.15;;;17.50;99.90;;;;;;6247813;23;20435;-92
2023/08/17 04:14:39;;;;;;;165.90;36.22;;;17.50;99.90;;;;;;6246531;23;20031;-91
2023/08/17 04:17:27;;;;;;;141.40;34.38;;;17.50;99.90;;;;;;6247401;23;20097;-91
2023/08/17 04:20:15;;;;;;;182.45;36.88;;;17.50;99.90;;;;;;6246888;23;20036;-90
2023/08/17 04:23:02;;;;;;;141.20;35.88;;;17.50;99.90;;;;;;6245343;23;20052;-91
2023/08/17 04:25:52;;;;;;;129.30;35.50;;;17.50;99.90;;;;;;6245237;23;20322;-91
2023/08/17 04:28:40;;;;;;;147.88;32.97;;;17.50;99.90;;;;;;6244929;23;20024;-89
2023/08/17 04:31:32;;;;;;;127.28;33.00;;;17.50;99.90;;;;;;6248482;22;20022;-90
2023/08/17 04:34:19;;;;;;;136.98;32.75;;;17.50;99.90;;;;;;6253049;23;20445;-93
2023/08/17 04:37:07;;;;;;;138.80;33.10;;;17.60;99.90;;;;;;6249905;23;20020;-93
2023/08/17 04:40:01;;;;;;;188.88;34.90;;;17.60;99.90;;;;;;6248611;23;20020;-93
2023/08/17 04:47:57;;;;;;;146.27;33.72;;;17.60;99.90;;;;;;6142615;23;20417;-92
2023/08/17 04:56:10;;;;;;;174.70;33.15;;;17.60;99.90;;;;;;6060008;23;20007;-85
2023/08/17 04:59:01;;;;;;;144.35;33.53;;;17.60;99.90;;;;;;6059929;23;20038;-87
2023/08/17 05:01:53;;;;;;;122.45;32.28;;;17.60;99.90;;;;;;6060586;23;20031;-87
2023/08/17 05:04:43;;;;;;;135.07;34.47;;;17.70;99.90;;;;;;6160954;23;20021;-89
2023/08/17 05:07:32;;;;;;;101.07;31.80;;;17.70;99.90;;;;;;6190568;23;20084;-90
2023/08/17 05:10:25;;;;;;;154.35;35.70;;;17.60;99.90;;;;;;6172287;23;20032;-89
2023/08/17 05:13:15;;;;;;;205.48;37.58;;;17.70;99.90;;;;;;6193742;23;20036;-88
2023/08/17 05:16:05;;;;;;;216.48;35.38;;;17.70;99.90;;;;;;6163665;23;20354;-87
2023/08/17 05:18:58;;;;;;;172.40;35.60;;;17.60;99.90;;;;;;6184984;23;20116;-90
2023/08/17 05:21:45;;;;;;;95.28;33.75;;;17.60;99.90;;;;;;6234111;23;20035;-88
2023/08/17 05:24:37;;;;;;;124.72;34.63;;;17.80;99.90;;;;;;6243298;23;20024;-88
2023/08/17 05:27:29;;;;;;;109.90;33.38;;;17.90;99.90;;;;;;6245423;23;20108;-89
2023/08/17 05:30:19;;;;;;;102.70;31.55;;;18.00;99.90;;;;;;6245477;23;20118;-88
2023/08/17 05:33:08;;;;;;;94.07;29.17;;;18.00;99.90;;;;;;6248886;23;20418;-89
2023/08/17 05:35:56;;;;;;;84.43;27.85;;;17.80;99.90;;;;;;6246044;23;20044;-88
2023/08/17 05:38:45;;;;;;;87.13;30.70;;;17.80;99.90;;;;;;6245508;23;20023;-91
2023/08/17 05:41:35;;;;;;;139.10;32.28;;;17.70;99.90;;;;;;6244848;23;20035;-90
2023/08/17 05:44:32;;;;;;;;;;;;;;;;;;;;;
2023/08/17 05:47:45;;;;;;;112.25;32.08;;;17.80;99.90;;;;;;6156003;23;20132;-88
2023/08/17 05:50:32;;;;;;;137.10;31.58;;;17.90;99.90;;;;;;6149860;22;20344;-89
2023/08/17 05:53:23;;;;;;;80.82;27.83;;;17.90;99.90;;;;;;6250958;23;20031;-87
2023/08/17 05:56:21;;;;;;;94.45;29.10;;;18.00;99.90;;;;;;6253620;23;20090;-88
2023/08/17 05:59:11;;;;;;;71.03;27.25;;;18.00;99.90;;;;;;6257352;23;20032;-87
2023/08/17 06:02:11;;;;;;;193.60;33.33;;;18.00;99.90;;;;;;6262168;23;20401;-89
2023/08/17 06:05:36;;;;;;;85.07;29.48;;;17.90;99.90;;;;;;6251359;23;20032;-87
2023/08/17 06:08:44;;;;;;;89.65;34.53;;;17.90;99.90;;;;;;6251886;23;20133;-89
2023/08/17 06:11:39;;;;;;;48.05;23.58;;;18.00;99.90;;;;;;6251064;23;20370;-90
2023/08/17 06:15:10;;;;;;;62.05;26.45;;;18.20;99.90;;;;;;6251918;23;20024;-87
2023/08/17 06:18:04;;;;;;;93.22;29.27;;;18.30;99.90;;;;;;6252308;23;20020;-86
2023/08/17 06:20:53;;;;;;;122.57;28.75;;;18.00;99.90;;;;;;6250088;23;20028;-86
2023/08/17 06:23:44;;;;;;;74.43;28.92;;;17.90;99.90;;;;;;6246025;23;20054;-86
2023/08/17 06:26:31;;;;;;;63.33;27.70;;;17.90;99.90;;;;;;6248766;23;20035;-88
2023/08/17 06:29:20;;;;;;;73.70;31.30;;;17.90;99.90;;;;;;6247338;23;20032;-90
2023/08/17 06:32:10;;;;;;;91.72;31.08;;;18.00;99.90;;;;;;6248037;23;20024;-85
2023/08/17 06:34:57;;;;;;;53.63;27.58;;;18.00;99.90;;;;;;6249607;23;20107;-86
2023/08/17 06:37:47;;;;;;;56.75;26.50;;;18.30;99.90;;;;;;6260239;23;20028;-83
2023/08/17 06:40:36;;;;;;;49.70;27.50;;;18.40;99.90;;;;;;6256355;23;20028;-85
2023/08/17 06:43:23;;;;;;;49.15;26.13;;;18.60;99.90;;;;;;6244959;23;20109;-86
2023/08/17 06:46:13;;;;;;;59.30;24.77;;;18.60;99.90;;;;;;6244617;23;20023;-85
2023/08/17 06:49:00;;;;;;;46.47;24.60;;;18.50;99.90;;;;;;6247076;22;20023;-86
2023/08/17 06:51:49;;;;;;;38.97;23.65;;;18.40;99.90;;;;;;6243878;23;20035;-87
2023/08/17 06:54:37;;;;;;;44.47;23.25;;;18.60;99.90;;;;;;6245391;23;20030;-86
2023/08/17 06:57:24;;;;;;;40.22;21.77;;;18.60;99.90;;;;;;6245242;23;20028;-82
2023/08/17 07:00:15;;;;;;;33.22;21.92;;;18.70;99.90;;;;;;6246279;22;20151;-86
2023/08/17 07:03:08;;;;;;;36.28;22.10;;;18.80;99.90;;;;;;6246951;22;20350;-87
2023/08/17 07:05:57;;;;;;;28.73;19.52;;;19.00;99.90;;;;;;6261488;23;20008;-86
2023/08/17 07:08:47;;;;;;;29.02;19.45;;;19.00;99.90;;;;;;6256814;23;20075;-83
2023/08/17 07:11:36;;;;;;;31.80;20.60;;;19.00;99.90;;;;;;6263135;23;20035;-85
2023/08/17 07:14:27;;;;;;;28.55;19.65;;;18.90;99.90;;;;;;6252216;23;20024;-86
2023/08/17 07:17:22;;;;;;;32.28;20.02;;;18.90;99.90;;;;;;6253001;23;20020;-86
2023/08/17 07:20:11;;;;;;;34.45;20.45;;;18.80;99.90;;;;;;6247636;23;20427;-86
2023/08/17 07:23:01;;;;;;;33.87;21.77;;;18.80;99.90;;;;;;6243544;23;20526;-88
2023/08/17 07:25:49;;;;;;;32.33;20.75;;;19.00;99.90;;;;;;6245639;23;20024;-87
2023/08/17 07:28:39;;;;;;;28.75;19.38;;;19.20;99.90;;;;;;6246430;23;20043;-86
2023/08/17 07:31:33;;;;;;;25.45;19.00;;;19.20;99.90;;;;;;6245959;23;20109;-88
2023/08/17 07:34:26;;;;;;;23.20;17.48;;;19.20;99.90;;;;;;6245844;23;20095;-90
2023/08/17 07:37:14;;;;;;;19.80;15.88;;;19.30;99.90;;;;;;6245935;23;20410;-88
2023/08/17 07:40:03;;;;;;;21.38;16.35;;;19.50;99.90;;;;;;6243807;23;20078;-89
2023/08/17 07:42:51;;;;;;;19.58;14.98;;;19.50;99.90;;;;;;6244368;23;20028;-88
2023/08/17 07:45:38;;;;;;;22.25;15.88;;;19.60;99.90;;;;;;6243935;23;20399;-89
2023/08/17 07:48:36;;;;;;;16.40;14.38;;;19.60;99.90;;;;;;6243986;23;20103;-90
2023/08/17 07:51:36;;;;;;;18.45;14.48;;;19.70;99.90;;;;;;6244003;23;20020;-90
2023/08/17 07:54:28;;;;;;;18.63;13.90;;;19.70;99.90;;;;;;6244702;23;20024;-89
2023/08/17 07:57:20;;;;;;;16.60;14.07;;;19.90;99.90;;;;;;6243300;23;20024;-89
2023/08/17 08:00:16;;;;;;;14.80;13.20;;;20.00;99.90;;;;;;6245416;22;20048;-89
2023/08/17 08:03:03;;;;;;;15.82;12.80;;;20.30;99.90;;;;;;6241904;23;20435;-87
2023/08/17 08:05:52;;;;;;;12.57;11.23;;;20.40;99.90;;;;;;6243565;23;20063;-86
2023/08/17 08:08:42;;;;;;;13.27;9.93;;;21.00;99.90;;;;;;6245541;23;20469;-85
2023/08/17 08:11:30;;;;;;;10.13;8.65;;;21.90;99.90;;;;;;6244183;23;20099;-89
2023/08/17 08:14:52;;;;;;;9.60;8.60;;;22.90;99.90;;;;;;6166352;23;20032;-90
2023/08/17 08:18:16;;;;;;;10.48;7.78;;;23.50;1.00;;;;;;6157328;23;20519;-91
2023/08/17 08:21:19;;;;;;;;;;;;;;;;;;;;;
2023/08/17 08:28:00;;;;;;;7.47;6.78;;;23.40;1.00;;;;;;6184439;23;20815;-87
2023/08/17 08:30:48;;;;;;;8.30;7.43;;;24.10;99.90;;;;;;6196333;23;20526;-90
2023/08/17 08:33:39;;;;;;;9.32;7.55;;;24.30;31.00;;;;;;6197126;23;20125;-88
2023/08/17 08:36:28;;;;;;;8.70;7.75;;;24.40;1.00;;;;;;6188637;23;20021;-88
2023/08/17 08:39:16;;;;;;;6.82;6.03;;;25.00;99.90;;;;;;6244889;23;20372;-88
2023/08/17 08:42:06;;;;;;;9.13;5.88;;;26.00;12.50;;;;;;6244640;23;20395;-89
2023/08/17 08:44:53;;;;;;;7.03;4.95;;;27.00;1.00;;;;;;6246719;22;20032;-88
2023/08/17 08:47:45;;;;;;;6.60;5.95;;;28.20;99.90;;;;;;6245210;23;20035;-90
2023/08/17 08:50:46;;;;;;;;;;;;;;;;;;;;;
2023/08/17 08:54:37;;;;;;;;;;;;;;;;;;;;;
2023/08/17 08:57:49;;;;;;;5.95;5.22;;;25.60;1.00;;;;;;6244734;23;20079;-90
2023/08/17 09:00:39;;;;;;;8.27;5.95;;;26.50;88.40;;;;;;6245292;23;20281;-88
2023/08/17 09:03:38;;;;;;;5.97;5.38;;;26.80;1.00;;;;;;6248481;22;20102;-90
2023/08/17 09:06:30;;;;;;;7.70;5.32;;;26.80;1.00;;;;;;6247414;23;20039;-90
2023/08/17 09:09:23;;;;;;;6.28;5.38;;;26.90;1.00;;;;;;6248886;22;20020;-87
2023/08/17 09:12:16;;;;;;;5.70;5.18;;;27.10;1.00;;;;;;6246746;22;20101;-92
2023/08/17 09:15:20;;;;;;;4.72;4.22;;;27.20;1.00;;;;;;6246176;22;20035;-89
2023/08/17 09:18:07;;;;;;;5.50;5.00;;;27.50;1.00;;;;;;6245987;23;20121;-87
2023/08/17 09:20:59;;;;;;;5.90;4.75;;;27.90;1.00;;;;;;6245514;23;20047;-88
2023/08/17 09:24:24;;;;;;;7.25;4.45;;;27.40;1.00;;;;;;6247563;23;20035;-91
2023/08/17 09:28:07;;;;;;;;;;;;;;;;;;;;;
2023/08/17 09:36:01;;;;;;;6.78;4.28;;;29.60;99.90;;;;;;6057243;23;20044;-91
2023/08/17 09:39:10;;;;;;;4.57;4.05;;;30.40;99.90;;;;;;6104440;23;20053;-92
2023/08/17 09:42:07;;;;;;;6.20;4.03;;;29.80;99.90;;;;;;6132856;23;20069;-89
2023/08/17 09:45:21;;;;;;;4.38;3.97;;;30.20;99.90;;;;;;6138389;23;20061;-90
2023/08/17 09:48:51;;;;;;;4.13;3.72;;;29.80;99.90;;;;;;6027216;23;20198;-89
2023/08/17 09:52:22;;;;;;;7.28;3.60;;;30.30;99.90;;;;;;6024780;23;20062;-90
2023/08/17 09:55:11;;;;;;;4.30;3.90;;;30.50;99.90;;;;;;6014748;23;20019;-88
2023/08/17 09:58:00;;;;;;;4.10;3.72;;;30.80;99.90;;;;;;6013889;23;20474;-89
2023/08/17 10:00:49;;;;;;;6.03;4.05;;;30.40;99.90;;;;;;5999047;23;20472;-90
2023/08/17 10:03:42;;;;;;;5.80;4.00;;;30.60;99.90;;;;;;6068144;23;20026;-90
2023/08/17 10:06:31;;;;;;;5.10;4.60;;;30.20;99.90;;;;;;6098313;23;20560;-91
2023/08/17 10:09:27;;;;;;;4.75;3.80;;;30.00;99.90;;;;;;6123389;23;20101;-90
2023/08/17 10:12:16;;;;;;;5.10;3.90;;;29.40;99.90;;;;;;6214252;23;20442;-89
2023/08/17 10:15:10;;;;;;;4.75;4.35;;;29.30;99.90;;;;;;6242781;23;20028;-87
2023/08/17 10:18:22;;;;;;;8.63;4.45;;;29.00;99.90;;;;;;6246290;23;20327;-88
2023/08/17 10:21:27;;;;;;;5.13;4.28;;;28.70;99.90;;;;;;6245777;23;20028;-88
2023/08/17 10:24:15;;;;;;;4.13;3.72;;;29.00;99.90;;;;;;6243209;23;20024;-89
2023/08/17 10:27:05;;;;;;;8.27;3.88;;;29.90;99.90;;;;;;6247190;23;20024;-90
2023/08/17 10:29:53;;;;;;;5.40;3.60;;;30.50;99.90;;;;;;6249710;22;20072;-91
2023/08/17 10:32:46;;;;;;;5.30;4.18;;;30.90;99.90;;;;;;6248817;22;20031;-86
2023/08/17 10:35:39;;;;;;;6.18;4.68;;;30.60;99.90;;;;;;6246724;23;20074;-88
2023/08/17 10:38:26;;;;;;;5.32;3.60;;;29.90;99.90;;;;;;6251266;23;20354;-88
2023/08/17 10:41:16;;;;;;;3.60;3.30;;;30.90;99.90;;;;;;6256803;23;20024;-87
2023/08/17 10:44:07;;;;;;;3.50;2.95;;;32.30;99.90;;;;;;6254199;23;20109;-87
2023/08/17 10:47:17;;;;;;;5.05;3.75;;;33.50;99.90;;;;;;6248387;22;20035;-90
2023/08/17 10:50:23;;;;;;;4.85;3.40;;;34.40;99.90;;;;;;6245150;23;20028;-86
2023/08/17 10:53:12;;;;;;;4.88;3.50;;;34.20;99.90;;;;;;6246482;23;20419;-92
2023/08/17 10:56:06;;;;;;;4.05;3.47;;;33.50;99.90;;;;;;6245467;23;20438;-89
2023/08/17 10:59:01;;;;;;;4.15;3.58;;;33.00;99.90;;;;;;6250648;23;20422;-90
2023/08/17 11:05:07;;;;;;;5.28;4.10;;;33.00;93.20;;;;;;6247909;23;20028;-91
2023/08/17 11:07:55;;;;;;;4.60;4.00;;;32.70;91.00;;;;;;6249457;23;20035;-90
2023/08/17 11:10:58;;;;;;;10.20;4.13;;;32.40;85.80;;;;;;6245889;23;20039;-86
2023/08/17 11:13:46;;;;;;;4.78;3.95;;;32.30;93.80;;;;;;6245765;23;20045;-90
2023/08/17 11:16:33;;;;;;;4.32;3.92;;;33.40;71.50;;;;;;6243645;23;20028;-91
2023/08/17 11:19:21;;;;;;;4.72;3.85;;;33.40;65.10;;;;;;6245026;23;20365;-89
2023/08/17 11:22:09;;;;;;;4.18;3.78;;;33.00;65.60;;;;;;6246532;23;20028;-87
2023/08/17 11:24:58;;;;;;;6.68;4.00;;;33.30;66.60;;;;;;6244728;23;20028;-88
2023/08/17 11:27:49;;;;;;;6.13;3.90;;;33.30;53.90;;;;;;6251929;23;20109;-90
2023/08/17 11:30:38;;;;;;;4.38;3.45;;;32.80;54.70;;;;;;6253301;22;20088;-82
2023/08/17 11:33:34;;;;;;;6.03;4.10;;;33.40;53.10;;;;;;6270778;22;20068;-85
2023/08/17 11:36:23;;;;;;;5.35;3.30;;;34.40;49.20;;;;;;6262064;22;20095;-89
2023/08/17 11:39:11;;;;;;;4.70;3.00;;;36.10;44.80;;;;;;6255456;22;20077;-89
2023/08/17 11:42:04;;;;;;;3.60;3.30;;;37.10;14.30;;;;;;6252330;23;20034;-92
2023/08/17 11:49:51;;;;;;;9.45;3.58;;;34.60;6.90;;;;;;6181174;22;20051;-92
2023/08/17 11:52:56;;;;;;;4.60;3.60;;;34.60;1.00;;;;;;6247072;23;20050;-92
2023/08/17 12:03:50;;;;;;;7.53;3.65;;;33.20;1.00;;;;;;6228191;22;20024;-86
2023/08/17 12:06:44;;;;;;;5.65;3.25;;;32.20;1.00;;;;;;6246355;22;20034;-86
2023/08/17 12:09:34;;;;;;;6.38;3.50;;;31.80;4.60;;;;;;6245833;22;20032;-88
2023/08/17 12:12:22;;;;;;;6.38;3.78;;;31.10;11.50;;;;;;6243850;23;20031;-88
2023/08/17 12:15:11;;;;;;;3.50;3.20;;;30.40;11.50;;;;;;6242251;23;20115;-86
2023/08/17 12:18:05;;;;;;;4.45;3.60;;;30.00;14.00;;;;;;6245561;23;20024;-87
2023/08/17 12:20:54;;;;;;;4.38;3.97;;;29.80;24.10;;;;;;6245306;23;20023;-89
2023/08/17 12:23:45;;;;;;;7.15;4.40;;;29.20;30.60;;;;;;6244834;23;20712;-88
2023/08/17 12:26:35;;;;;;;5.63;4.03;;;28.80;53.90;;;;;;6245662;22;20082;-86
2023/08/17 12:29:22;;;;;;;7.88;4.20;;;28.70;77.80;;;;;;6248790;23;20060;-88
2023/08/17 12:32:13;;;;;;;4.50;4.03;;;28.60;71.40;;;;;;6243526;23;20550;-89
2023/08/17 12:35:00;;;;;;;5.55;4.18;;;28.50;99.90;;;;;;6243367;23;20125;-88
2023/08/17 12:37:52;;;;;;;5.05;4.22;;;28.30;99.90;;;;;;6248090;23;20024;-87
2023/08/17 12:40:49;;;;;;;4.40;4.00;;;28.00;99.90;;;;;;6245905;22;20024;-87
2023/08/17 12:43:37;;;;;;;8.48;4.63;;;27.80;99.90;;;;;;6246076;22;20035;-87
2023/08/17 12:46:25;;;;;;;7.10;4.18;;;27.50;99.90;;;;;;6243716;23;20375;-89
2023/08/17 12:49:18;;;;;;;8.27;4.57;;;27.20;99.90;;;;;;6246837;23;20032;-89
2023/08/17 12:52:07;;;;;;;6.78;4.82;;;26.90;99.90;;;;;;6245805;23;20080;-88
2023/08/17 12:54:54;;;;;;;8.50;4.88;;;26.40;99.90;;;;;;6246294;23;20031;-86
2023/08/17 12:57:47;;;;;;;;;;;25.80;99.90;;;;;;6246006;22;20024;-87
2023/08/17 13:00:40;;;;;;;6.53;5.30;;;25.30;99.90;;;;;;6244632;23;19920;-84
2023/08/17 13:03:29;;;;;;;6.95;5.90;;;24.90;1.00;;;;;;6245965;22;20039;-86
2023/08/17 13:06:17;;;;;;;6.20;5.35;;;24.70;19.60;;;;;;6245658;22;20028;-87
2023/08/17 13:09:07;;;;;;;6.85;4.70;;;24.50;1.00;;;;;;6243260;23;20028;-84
2023/08/17 13:11:58;;;;;;;7.55;4.75;;;24.40;1.00;;;;;;6246376;22;20032;-88
2023/08/17 13:14:47;;;;;;;7.43;4.43;;;24.10;1.00;;;;;;6243353;23;20193;-88
2023/08/17 13:17:37;;;;;;;6.80;4.00;;;24.10;1.00;;;;;;6243165;23;20086;-85
2023/08/17 13:20:25;;;;;;;7.50;4.57;;;24.00;1.00;;;;;;6244853;23;20099;-90
2023/08/17 13:23:35;;;;;;;6.20;4.15;;;23.80;1.00;;;;;;6246718;23;20039;-89
2023/08/17 13:26:30;;;;;;;9.95;4.10;;;23.70;1.00;;;;;;6246262;22;20103;-91
2023/08/17 13:29:25;;;;;;;6.68;4.80;;;23.60;1.00;;;;;;6247518;22;20106;-93
2023/08/17 13:32:12;;;;;;;5.43;4.38;;;23.50;23.00;;;;;;6250059;22;20020;-94
2023/08/17 13:52:10;;;;;;;;;;;;;;;;;;;;;
2023/08/17 14:03:38;;;;;;;7.10;6.22;;;23.20;99.90;;;;;;5872515;24;20011;-95
2023/08/17 14:39:42;;;;;;;;;;;;;;;;;;;;;
2023/08/17 14:42:40;;;;;;;11.38;6.32;;;28.50;1.00;;;;;;6147901;23;20119;-91
2023/08/17 14:45:42;;;;;;;10.90;5.78;;;30.20;99.90;;;;;;6163977;23;20077;-93
2023/08/17 14:49:08;;;;;;;;;;;;;;;;;;;;;
2023/08/17 15:04:41;;;;;;;;;;;;;;;;;;;;;
2023/08/17 15:24:23;;;;;;;9.95;6.10;;;30.40;99.90;;;;;;6130320;23;20037;-92
2023/08/17 15:32:06;;;;;;;10.60;6.15;;;29.70;99.90;;;;;;6157611;23;20349;-91
2023/08/17 15:35:46;;;;;;;;;;;;;;;;;;;;;
2023/08/17 15:58:12;;;;;;;12.40;6.63;;;28.60;99.90;;;;;;6231007;22;19987;-93
2023/08/17 16:01:33;;;;;;;;;;;;;;;;;;;;;
2023/08/17 16:08:04;;;;;;;8.38;6.38;;;29.20;99.90;;;;;;6223360;23;20025;-94
2023/08/17 16:10:55;;;;;;;13.38;7.57;;;29.00;99.90;;;;;;6225888;23;20032;-90
2023/08/17 16:13:44;;;;;;;12.07;7.50;;;28.30;99.90;;;;;;6216359;23;20056;-93
2023/08/17 16:16:33;;;;;;;9.38;7.15;;;28.00;99.90;;;;;;6227418;23;20032;-93
2023/08/17 16:19:20;;;;;;;9.50;6.28;;;28.40;99.90;;;;;;6223417;23;20028;-91
2023/08/17 16:22:11;;;;;;;9.80;5.65;;;29.20;99.90;;;;;;6226371;23;20395;-94
2023/08/17 16:25:03;;;;;;;9.02;6.05;;;29.90;99.90;;;;;;6225464;23;20028;-93
2023/08/17 16:27:51;;;;;;;10.57;6.28;;;29.90;99.90;;;;;;6221681;23;20028;-93
2023/08/17 16:30:45;;;;;;;9.95;6.13;;;29.30;99.90;;;;;;6224186;23;20016;-94
2023/08/17 16:34:49;;;;;;;9.63;6.53;;;29.10;99.90;;;;;;6216807;23;20024;-93
2023/08/17 16:38:24;;;;;;;;;;;;;;;;;;;;;
2023/08/17 16:42:11;;;;;;;12.45;6.93;;;28.40;99.90;;;;;;6114245;23;20072;-90
2023/08/17 16:45:30;;;;;;;;;;;;;;;;;;;;;
2023/08/17 16:49:11;;;;;;;;;;;;;;;;;;;;;
2023/08/17 18:43:07;;;;;;;13.25;11.93;;;22.50;99.90;;;;;;6242984;22;20036;-92
2023/08/17 18:46:47;;;;;;;;;;;;;;;;;;;;;
2023/08/17 18:50:05;;;;;;;17.90;12.07;;;22.40;99.90;;;;;;6111516;23;20078;-92
2023/08/17 18:54:04;;;;;;;;;;;;;;;;;;;;;
2023/08/17 18:57:55;;;;;;;;;;;;;;;;;;;;;
2023/08/17 19:01:42;;;;;;;19.77;13.82;;;22.20;99.90;;;;;;6045229;23;20031;-93
2023/08/17 19:05:23;;;;;;;19.45;14.07;;;22.10;99.90;;;;;;6034788;23;20042;-92
2023/08/17 19:11:55;;;;;;;20.05;14.68;;;22.00;99.90;;;;;;6100073;23;20030;-93
2023/08/17 19:23:30;;;;;;;23.20;16.00;;;21.80;99.90;;;;;;6023845;23;20394;-92
2023/08/17 19:27:18;;;;;;;;;;;;;;;;;;;;;
2023/08/17 19:31:37;;;;;;;;;;;;;;;;;;;;;
2023/08/17 19:34:28;;;;;;;17.27;15.23;;;21.70;99.90;;;;;;5997857;23;20019;-93
2023/08/17 19:37:46;;;;;;;17.85;15.95;;;21.60;99.90;;;;;;6017042;23;20031;-93
2023/08/17 19:45:12;;;;;;;19.25;16.00;;;21.60;99.90;;;;;;6023284;23;20084;-92
2023/08/17 19:48:30;;;;;;;18.55;16.55;;;21.60;99.90;;;;;;6078101;23;20057;-92
2023/08/17 19:52:23;;;;;;;;;;;;;;;;;;;;;
2023/08/17 20:20:54;;;;;;;18.75;15.52;;;21.40;99.90;;;;;;6134989;23;20033;-93
2023/08/17 20:48:35;;;;;;;16.42;14.10;;;21.20;99.90;;;;;;5903423;24;20057;-89
2023/08/17 20:51:23;;;;;;;19.38;13.75;;;21.20;99.90;;;;;;6051025;23;20041;-90
2023/08/17 20:54:14;;;;;;;16.60;13.35;;;21.20;99.90;;;;;;6127731;23;20714;-90